createdAt,value
2019-01-12T00:02:12.134Z,3.13
2019-01-12T00:06:18.565Z,2.37
2019-01-12T00:10:24.518Z,2.70
2019-01-12T00:14:30.391Z,2.33
2019-01-12T00:18:37.787Z,1.97
2019-01-12T00:22:43.921Z,2.10
2019-01-12T00:26:49.803Z,2.77
2019-01-12T00:30:55.874Z,2.75
2019-01-12T00:35:02.181Z,2.52
2019-01-12T00:39:09.063Z,2.00
2019-01-12T00:47:35.453Z,1.60
2019-01-12T00:56:40.489Z,2.20
2019-01-12T01:00:51.596Z,2.17
2019-01-12T01:09:18.870Z,1.73
2019-01-12T01:13:27.832Z,2.20
2019-01-12T01:17:35.926Z,2.72
2019-01-12T01:21:42.274Z,2.20
2019-01-12T01:25:51.909Z,2.37
2019-01-12T01:30:05.219Z,48.83
2019-01-12T01:38:25.956Z,4.80
2019-01-12T01:42:38.643Z,4.40
2019-01-12T01:46:44.867Z,3.73
2019-01-12T01:50:51.094Z,3.27
2019-01-12T01:54:57.086Z,2.70
2019-01-12T01:59:03.224Z,3.33
2019-01-12T02:03:09.039Z,2.97
2019-01-12T02:07:15.266Z,3.00
2019-01-12T02:11:21.585Z,2.60
2019-01-12T02:15:28.573Z,3.10
2019-01-12T02:19:34.503Z,3.10
2019-01-12T02:23:40.474Z,3.20
2019-01-12T02:27:46.244Z,2.90
2019-01-12T02:31:52.310Z,3.15
2019-01-12T02:35:58.306Z,2.37
2019-01-12T02:40:04.493Z,2.50
2019-01-12T02:44:10.660Z,2.50
2019-01-12T02:48:16.542Z,2.37
2019-01-12T02:52:22.355Z,2.58
2019-01-12T02:56:28.277Z,2.20
2019-01-12T03:00:34.210Z,2.70
2019-01-12T03:04:40.720Z,2.73
2019-01-12T03:08:46.587Z,2.70
2019-01-12T03:12:52.633Z,2.40
2019-01-12T03:16:58.979Z,2.40
2019-01-12T03:21:05.221Z,2.27
2019-01-12T03:25:17.771Z,2.20
2019-01-12T03:29:17.615Z,2.57
2019-01-12T03:33:23.557Z,2.67
2019-01-12T03:37:29.375Z,2.37
2019-01-12T03:41:35.029Z,2.22
2019-01-12T03:45:40.849Z,2.33
2019-01-12T03:49:46.849Z,2.37
2019-01-12T03:53:53.026Z,2.30
2019-01-12T03:57:59.200Z,3.10
2019-01-12T04:02:05.360Z,1.73
2019-01-12T04:06:11.249Z,2.03
2019-01-12T04:10:17.133Z,2.27
2019-01-12T04:14:22.964Z,2.20
2019-01-12T04:18:28.933Z,2.17
2019-01-12T04:22:34.815Z,2.27
2019-01-12T04:26:40.805Z,2.00
2019-01-12T04:30:46.700Z,2.27
2019-01-12T04:34:53.112Z,2.20
2019-01-12T04:38:58.859Z,2.07
2019-01-12T04:43:04.902Z,2.33
2019-01-12T04:47:10.812Z,2.90
2019-01-12T04:51:16.797Z,2.00
2019-01-12T04:55:22.518Z,2.60
2019-01-12T04:59:28.538Z,2.00
2019-01-12T05:03:34.450Z,2.20
2019-01-12T05:07:40.530Z,2.60
2019-01-12T05:11:46.283Z,1.97
2019-01-12T05:15:52.258Z,2.25
2019-01-12T05:19:58.140Z,2.53
2019-01-12T05:24:04.726Z,1.92
2019-01-12T05:28:10.717Z,2.40
2019-01-12T05:32:16.580Z,1.83
2019-01-12T05:36:22.269Z,2.20
2019-01-12T05:40:28.156Z,2.07
2019-01-12T05:44:33.990Z,1.90
2019-01-12T05:48:39.658Z,1.83
2019-01-12T05:52:45.636Z,2.00
2019-01-12T05:56:52.009Z,1.95
2019-01-12T06:00:58.038Z,1.60
2019-01-12T06:05:03.857Z,1.80
2019-01-12T06:09:09.985Z,1.85
2019-01-12T06:13:15.896Z,1.93
2019-01-12T06:17:21.890Z,2.17
2019-01-12T06:21:27.673Z,1.90
2019-01-12T06:25:33.734Z,1.93
2019-01-12T06:29:39.876Z,1.97
2019-01-12T06:33:45.495Z,2.17
2019-01-12T06:37:51.172Z,2.07
2019-01-12T06:41:57.040Z,1.90
2019-01-12T06:46:03.051Z,2.60
2019-01-12T06:50:09.191Z,2.12
2019-01-12T06:54:14.984Z,1.70
2019-01-12T06:58:20.910Z,1.87
2019-01-12T07:02:26.764Z,2.00
2019-01-12T07:06:33.580Z,2.45
2019-01-12T07:10:39.870Z,2.10
2019-01-12T07:14:45.829Z,1.97
2019-01-12T07:18:51.833Z,2.30
2019-01-12T07:22:57.985Z,1.62
2019-01-12T07:27:03.774Z,1.97
2019-01-12T07:31:09.818Z,1.60
2019-01-12T07:35:15.768Z,2.20
2019-01-12T07:39:21.593Z,2.00
2019-01-12T07:43:27.377Z,1.70
2019-01-12T07:47:33.068Z,2.17
2019-01-12T07:51:38.756Z,2.13
2019-01-12T07:55:44.514Z,2.20
2019-01-12T07:59:50.464Z,1.40
2019-01-12T08:03:56.262Z,1.90
2019-01-12T08:08:02.556Z,2.03
2019-01-12T08:12:08.478Z,2.40
2019-01-12T08:16:28.595Z,3.08
2019-01-12T08:20:34.573Z,3.00
2019-01-12T08:24:40.551Z,5.40
2019-01-12T08:28:46.461Z,2.23
2019-01-12T08:32:52.370Z,2.80
2019-01-12T08:36:58.124Z,2.93
2019-01-12T08:41:04.342Z,2.55
2019-01-12T08:45:10.333Z,2.73
2019-01-12T08:49:16.368Z,2.33
2019-01-12T08:53:22.225Z,2.63
2019-01-12T08:57:27.985Z,2.30
2019-01-12T09:01:34.073Z,2.43
2019-01-12T09:05:40.070Z,1.85
2019-01-12T09:09:46.127Z,2.30
2019-01-12T09:13:51.990Z,2.20
2019-01-12T09:17:58.098Z,2.00
2019-01-12T09:22:03.977Z,2.35
2019-01-12T09:26:09.885Z,2.33
2019-01-12T09:30:15.892Z,2.40
2019-01-12T09:34:21.565Z,2.20
2019-01-12T09:38:27.212Z,2.40
2019-01-12T09:42:33.042Z,2.50
2019-01-12T09:46:38.616Z,2.63
2019-01-12T09:50:44.628Z,1.90
2019-01-12T09:54:50.791Z,2.20
2019-01-12T09:58:56.542Z,2.33
2019-01-12T10:03:02.095Z,2.60
2019-01-12T10:07:08.214Z,3.02
2019-01-12T10:11:13.831Z,2.50
2019-01-12T10:15:20.067Z,2.23
2019-01-12T10:19:25.945Z,5.60
2019-01-12T10:23:32.055Z,3.50
2019-01-12T10:27:38.160Z,2.93
2019-01-12T10:31:43.922Z,2.63
2019-01-12T10:35:49.829Z,2.87
2019-01-12T10:39:55.597Z,2.23
2019-01-12T10:44:01.694Z,2.83
2019-01-12T10:48:07.648Z,2.70
2019-01-12T10:52:13.410Z,2.35
2019-01-12T10:56:19.232Z,2.67
2019-01-12T11:00:25.900Z,4.95
2019-01-12T11:04:31.612Z,4.20
2019-01-12T11:08:37.481Z,4.03
2019-01-12T11:12:43.321Z,4.40
2019-01-12T11:16:49.603Z,3.77
2019-01-12T11:20:55.478Z,5.53
2019-01-12T11:25:01.560Z,18.40
2019-01-12T11:29:07.759Z,20.70
2019-01-12T11:33:13.660Z,21.20
2019-01-12T11:37:19.614Z,18.73
2019-01-12T11:41:25.651Z,18.80
2019-01-12T11:45:31.425Z,17.97
2019-01-12T11:49:37.157Z,16.97
2019-01-12T11:53:43.043Z,18.50
2019-01-12T11:57:48.959Z,55.33
2019-01-12T12:01:55.175Z,27.65
2019-01-12T12:06:00.921Z,20.20
2019-01-12T12:10:06.873Z,19.27
2019-01-12T12:14:12.962Z,15.77
2019-01-12T12:18:23.448Z,14.70
2019-01-12T12:22:29.448Z,15.10
2019-01-12T12:26:35.446Z,12.27
2019-01-12T12:30:41.171Z,11.38
2019-01-12T12:34:47.142Z,12.00
2019-01-12T12:38:52.954Z,11.97
2019-01-12T12:42:59.098Z,22.47
2019-01-12T12:47:05.204Z,21.17
2019-01-12T12:51:14.194Z,17.80
2019-01-12T12:55:20.218Z,12.80
2019-01-12T12:59:26.323Z,10.87
2019-01-12T13:03:34.967Z,10.80
2019-01-12T13:07:41.417Z,9.08
2019-01-12T13:11:47.097Z,9.20
2019-01-12T13:15:54.251Z,7.27
2019-01-12T13:20:00.018Z,8.30
2019-01-12T13:24:06.096Z,6.40
2019-01-12T13:28:12.010Z,6.40
2019-01-12T13:32:18.113Z,7.80
2019-01-12T13:36:24.080Z,6.80
2019-01-12T13:40:29.857Z,6.00
2019-01-12T13:44:35.849Z,6.00
2019-01-12T13:48:42.001Z,5.92
2019-01-12T13:52:47.858Z,5.78
2019-01-12T13:56:53.565Z,4.47
2019-01-12T14:01:00.377Z,5.70
2019-01-12T14:05:06.740Z,4.35
2019-01-12T14:09:12.870Z,4.93
2019-01-12T14:13:18.689Z,4.80
2019-01-12T14:17:24.520Z,4.73
2019-01-12T14:21:31.067Z,4.70
2019-01-12T14:25:37.239Z,5.50
2019-01-12T14:29:43.357Z,4.50
2019-01-12T14:33:49.413Z,4.80
2019-01-12T14:37:55.506Z,3.70
2019-01-12T14:42:01.266Z,3.80
2019-01-12T14:46:07.100Z,4.43
2019-01-12T14:50:13.004Z,4.30
2019-01-12T14:54:19.134Z,3.47
2019-01-12T14:58:24.878Z,3.90
2019-01-12T15:02:30.957Z,4.03
2019-01-12T15:06:36.737Z,3.77
2019-01-12T15:10:42.807Z,3.97
2019-01-12T15:14:49.100Z,2.93
2019-01-12T15:18:54.908Z,4.63
2019-01-12T15:23:02.079Z,4.30
2019-01-12T15:27:07.846Z,4.72
2019-01-12T15:31:13.552Z,3.98
2019-01-12T15:35:19.259Z,4.40
2019-01-12T15:39:24.944Z,4.37
2019-01-12T15:43:31.229Z,3.57
2019-01-12T15:47:37.039Z,3.47
2019-01-12T15:51:42.801Z,3.58
2019-01-12T15:55:48.938Z,3.50
2019-01-12T15:59:54.754Z,3.55
2019-01-12T16:04:00.604Z,3.75
2019-01-12T16:08:06.394Z,4.30
2019-01-12T16:12:12.211Z,3.83
2019-01-12T16:16:18.626Z,3.47
2019-01-12T16:20:24.498Z,3.60
2019-01-12T16:24:30.413Z,3.93
2019-01-12T16:28:36.418Z,3.70
2019-01-12T16:32:42.570Z,3.60
2019-01-12T16:36:48.405Z,3.90
2019-01-12T16:40:54.558Z,4.37
2019-01-12T16:45:00.709Z,3.40
2019-01-12T16:49:06.673Z,2.77
2019-01-12T16:53:12.996Z,4.10
2019-01-12T16:57:18.933Z,3.50
2019-01-12T17:01:25.328Z,3.73
2019-01-12T17:05:31.239Z,3.53
2019-01-12T17:09:37.243Z,3.57
2019-01-12T17:13:44.106Z,3.90
2019-01-12T17:17:50.400Z,3.85
2019-01-12T17:21:56.320Z,3.67
2019-01-12T17:26:02.104Z,2.90
2019-01-12T17:30:07.828Z,2.83
2019-01-12T17:34:13.789Z,3.33
2019-01-12T17:38:19.516Z,2.77
2019-01-12T17:42:25.432Z,3.40
2019-01-12T17:46:31.088Z,3.20
2019-01-12T17:50:37.192Z,3.30
2019-01-12T17:54:43.467Z,2.83
2019-01-12T17:58:49.456Z,2.60
2019-01-12T18:02:55.408Z,3.57
2019-01-12T18:07:01.191Z,3.40
2019-01-12T18:11:07.164Z,3.45
2019-01-12T18:15:12.746Z,3.40
2019-01-12T18:19:18.764Z,3.63
2019-01-12T18:23:24.771Z,3.27
2019-01-12T18:27:30.861Z,3.57
2019-01-12T18:31:36.954Z,3.30
2019-01-12T18:35:42.780Z,3.00
2019-01-12T18:39:48.979Z,2.87
2019-01-12T18:43:54.911Z,3.30
2019-01-12T18:48:01.060Z,3.40
2019-01-12T18:52:07.038Z,2.80
2019-01-12T18:56:17.344Z,3.07
2019-01-12T19:00:23.237Z,3.00
2019-01-12T19:04:29.793Z,2.47
2019-01-12T19:08:35.684Z,2.87
2019-01-12T19:12:42.021Z,4.20
2019-01-12T19:16:48.553Z,3.13
2019-01-12T19:20:54.051Z,2.70
2019-01-12T19:24:59.816Z,3.00
2019-01-12T19:29:06.643Z,3.40
2019-01-12T19:33:12.274Z,3.03
2019-01-12T19:37:18.492Z,3.50
2019-01-12T19:41:24.557Z,3.17
2019-01-12T19:45:31.036Z,3.05
2019-01-12T19:49:37.098Z,3.00
2019-01-12T19:53:43.107Z,2.63
2019-01-12T19:57:49.048Z,2.60
2019-01-12T20:01:54.945Z,2.72
2019-01-12T20:06:00.904Z,2.63
2019-01-12T20:10:06.810Z,2.50
2019-01-12T20:14:12.799Z,3.27
2019-01-12T20:18:19.128Z,3.00
2019-01-12T20:22:24.799Z,2.90
2019-01-12T20:26:30.591Z,2.83
2019-01-12T20:30:36.753Z,2.80
2019-01-12T20:34:42.651Z,2.60
2019-01-12T20:38:48.508Z,2.90
2019-01-12T20:43:08.897Z,3.80
2019-01-12T20:47:14.893Z,3.60
2019-01-12T20:51:22.939Z,3.60
2019-01-12T20:55:28.958Z,3.60
2019-01-12T20:59:34.350Z,2.75
2019-01-12T21:03:40.326Z,2.60
2019-01-12T21:07:46.316Z,3.30
2019-01-12T21:11:52.291Z,3.17
2019-01-12T21:15:58.540Z,3.80
2019-01-12T21:20:04.562Z,3.60
2019-01-12T21:24:10.406Z,3.75
2019-01-12T21:28:16.148Z,3.50
2019-01-12T21:32:22.039Z,3.40
2019-01-12T21:36:28.084Z,3.70
2019-01-12T21:40:33.854Z,3.07
2019-01-12T21:44:39.512Z,3.73
2019-01-12T21:48:45.374Z,3.57
2019-01-12T21:52:51.593Z,3.08
2019-01-12T21:56:57.796Z,3.27
2019-01-12T22:01:03.924Z,3.40
2019-01-12T22:05:09.847Z,3.52
2019-01-12T22:09:16.152Z,3.60
2019-01-12T22:13:22.068Z,3.60
2019-01-12T22:17:28.617Z,3.70
2019-01-12T22:21:34.486Z,3.50
2019-01-12T22:25:40.857Z,4.00
2019-01-12T22:29:50.018Z,3.30
2019-01-12T22:33:53.514Z,3.80
2019-01-12T22:37:59.872Z,3.90
2019-01-12T22:42:05.542Z,3.17
2019-01-12T22:46:11.653Z,3.33
2019-01-12T22:50:17.736Z,6.73
2019-01-12T22:54:23.608Z,3.80
2019-01-12T22:58:29.636Z,3.30
2019-01-12T23:02:35.578Z,3.03
2019-01-12T23:06:42.294Z,3.33
2019-01-12T23:10:48.732Z,3.60
2019-01-12T23:14:55.076Z,3.85
2019-01-12T23:19:01.697Z,3.10
2019-01-12T23:23:07.865Z,3.23
2019-01-12T23:27:13.825Z,2.93
2019-01-12T23:31:19.889Z,2.57
2019-01-12T23:35:26.430Z,3.03
2019-01-12T23:39:32.600Z,2.93
2019-01-12T23:43:38.577Z,2.83
2019-01-12T23:47:44.459Z,3.13
2019-01-12T23:51:50.949Z,2.95
2019-01-12T23:55:57.421Z,3.10
